createdAt,value
2023-02-26T00:01:31.010Z,100225.53
2023-02-26T00:04:01.847Z,100218.19
2023-02-26T00:06:31.317Z,100219.81
2023-02-26T00:08:58.241Z,100221.84
2023-02-26T00:11:25.326Z,100224.03
2023-02-26T00:13:52.664Z,100219.19
2023-02-26T00:16:35.061Z,100224.84
2023-02-26T00:19:04.987Z,100226.47
2023-02-26T00:21:33.368Z,100221.31
2023-02-26T00:24:01.984Z,100225.38
2023-02-26T00:26:31.194Z,100223.72
2023-02-26T00:28:58.398Z,100226.38
2023-02-26T00:31:25.483Z,100227.00
2023-02-26T00:33:54.273Z,100228.66
2023-02-26T00:36:29.164Z,100224.94
2023-02-26T00:39:07.323Z,100233.72
2023-02-26T00:41:36.217Z,100231.22
2023-02-26T00:44:03.650Z,100237.00
2023-02-26T00:46:37.070Z,100228.56
2023-02-26T00:49:16.918Z,100234.31
2023-02-26T00:51:51.720Z,100241.91
2023-02-26T00:54:23.080Z,100243.13
2023-02-26T00:56:53.109Z,100235.50
2023-02-26T00:59:21.962Z,100241.50
2023-02-26T01:01:49.536Z,100232.13
2023-02-26T01:04:18.798Z,100235.03
2023-02-26T01:06:48.874Z,100229.31
2023-02-26T01:09:26.643Z,100233.72
2023-02-26T01:11:55.494Z,100236.91
2023-02-26T01:14:22.751Z,100234.97
2023-02-26T01:17:04.262Z,100246.41
2023-02-26T01:19:54.315Z,100238.59
2023-02-26T01:22:26.150Z,100238.91
2023-02-26T01:25:00.175Z,100243.28
2023-02-26T01:27:26.944Z,100238.59
2023-02-26T01:29:54.430Z,100241.38
2023-02-26T01:32:57.111Z,100239.97
2023-02-26T01:35:36.861Z,100245.91
2023-02-26T01:38:13.586Z,100241.19
2023-02-26T01:40:52.484Z,100244.72
2023-02-26T01:43:27.186Z,100241.81
2023-02-26T01:46:04.064Z,100244.09
2023-02-26T01:48:38.533Z,100240.63
2023-02-26T01:51:05.709Z,100245.56
2023-02-26T01:53:32.542Z,100242.63
2023-02-26T01:56:04.745Z,100236.72
2023-02-26T01:58:35.677Z,100233.81
2023-02-26T02:01:03.643Z,100241.00
2023-02-26T02:03:33.832Z,100237.72
2023-02-26T02:06:06.203Z,100237.34
2023-02-26T02:08:35.735Z,100240.56
2023-02-26T02:11:07.034Z,100243.31
2023-02-26T02:13:49.370Z,100247.81
2023-02-26T02:16:35.062Z,100252.44
2023-02-26T02:19:30.392Z,100250.31
2023-02-26T02:22:26.253Z,100257.09
2023-02-26T02:25:04.186Z,100254.03
2023-02-26T02:27:40.144Z,100250.13
2023-02-26T02:30:19.945Z,100260.34
2023-02-26T02:32:52.336Z,100255.94
2023-02-26T02:35:29.133Z,100259.00
2023-02-26T02:38:08.348Z,100258.47
2023-02-26T02:40:41.522Z,100260.25
2023-02-26T02:43:16.015Z,100263.81
2023-02-26T02:45:49.642Z,100260.22
2023-02-26T02:48:38.755Z,100257.38
2023-02-26T02:51:18.840Z,100264.31
2023-02-26T02:53:52.954Z,100265.72
2023-02-26T02:56:41.996Z,100259.97
2023-02-26T02:59:42.368Z,100263.84
2023-02-26T03:02:25.828Z,100262.00
2023-02-26T03:04:52.590Z,100265.63
2023-02-26T03:07:19.319Z,100271.31
2023-02-26T03:09:51.604Z,100266.00
2023-02-26T03:12:18.377Z,100273.22
2023-02-26T03:14:46.272Z,100272.09
2023-02-26T03:17:34.965Z,100276.44
2023-02-26T03:20:24.188Z,100279.22
2023-02-26T03:23:04.985Z,100284.72
2023-02-26T03:25:45.901Z,100291.19
2023-02-26T03:28:43.478Z,100286.91
2023-02-26T03:31:35.906Z,100296.25
2023-02-26T03:34:25.967Z,100300.81
2023-02-26T03:36:59.232Z,100304.03
2023-02-26T03:39:35.626Z,100307.47
2023-02-26T03:42:06.752Z,100309.19
2023-02-26T03:44:47.046Z,100311.41
2023-02-26T03:47:15.838Z,100318.00
2023-02-26T03:50:02.950Z,100316.00
2023-02-26T03:52:36.268Z,100323.03
2023-02-26T03:55:42.708Z,100314.09
2023-02-26T03:58:27.570Z,100326.81
2023-02-26T04:01:34.289Z,100311.53
2023-02-26T04:04:13.177Z,100323.41
2023-02-26T04:06:40.910Z,100322.78
2023-02-26T04:09:08.287Z,100329.16
2023-02-26T04:11:38.196Z,100328.34
2023-02-26T04:14:05.105Z,100333.75
2023-02-26T04:16:37.643Z,100340.88
2023-02-26T04:19:04.597Z,100342.72
2023-02-26T04:21:31.495Z,100345.72
2023-02-26T04:23:58.145Z,100354.31
2023-02-26T04:26:25.238Z,100355.97
2023-02-26T04:28:52.107Z,100349.75
2023-02-26T04:31:19.758Z,100354.22
2023-02-26T04:33:47.482Z,100354.66
2023-02-26T04:36:14.799Z,100355.50
2023-02-26T04:38:41.681Z,100352.50
2023-02-26T04:41:09.028Z,100361.28
2023-02-26T04:43:37.647Z,100369.03
2023-02-26T04:46:15.909Z,100372.19
2023-02-26T04:48:42.823Z,100368.91
2023-02-26T04:51:09.675Z,100386.38
2023-02-26T04:53:38.421Z,100383.16
2023-02-26T04:56:10.175Z,100377.41
2023-02-26T04:58:37.142Z,100382.91
2023-02-26T05:01:09.112Z,100385.00
2023-02-26T05:03:36.483Z,100386.56
2023-02-26T05:06:03.557Z,100382.16
2023-02-26T05:08:32.969Z,100390.56
2023-02-26T05:10:59.908Z,100390.06
2023-02-26T05:13:29.089Z,100392.84
2023-02-26T05:15:56.366Z,100400.78
2023-02-26T05:18:23.265Z,100407.72
2023-02-26T05:20:55.088Z,100408.09
2023-02-26T05:23:22.369Z,100417.19
2023-02-26T05:25:49.541Z,100404.16
2023-02-26T05:28:17.107Z,100403.94
2023-02-26T05:30:44.565Z,100414.47
2023-02-26T05:33:11.366Z,100417.56
2023-02-26T05:35:38.234Z,100415.03
2023-02-26T05:38:05.103Z,100422.41
2023-02-26T05:40:31.812Z,100419.47
2023-02-26T05:42:58.534Z,100426.19
2023-02-26T05:45:25.216Z,100428.94
2023-02-26T05:47:51.840Z,100436.34
2023-02-26T05:50:18.603Z,100444.81
2023-02-26T05:52:45.326Z,100439.44
2023-02-26T05:55:12.082Z,100436.28
2023-02-26T05:57:39.132Z,100444.28
2023-02-26T06:00:08.068Z,100449.47
2023-02-26T06:02:41.459Z,100453.66
2023-02-26T06:05:09.499Z,100457.09
2023-02-26T06:07:36.172Z,100455.72
2023-02-26T06:10:03.200Z,100468.06
2023-02-26T06:12:30.491Z,100467.72
2023-02-26T06:14:57.083Z,100468.81
2023-02-26T06:17:23.718Z,100473.94
2023-02-26T06:19:50.350Z,100484.25
2023-02-26T06:22:17.040Z,100485.06
2023-02-26T06:24:43.841Z,100491.75
2023-02-26T06:27:10.648Z,100487.53
2023-02-26T06:29:37.629Z,100497.34
2023-02-26T06:32:05.154Z,100505.06
2023-02-26T06:34:32.611Z,100502.72
2023-02-26T06:36:59.482Z,100518.34
2023-02-26T06:39:26.286Z,100516.19
2023-02-26T06:41:53.067Z,100521.41
2023-02-26T06:44:19.678Z,100536.19
2023-02-26T06:46:46.417Z,100533.63
2023-02-26T06:49:13.166Z,100541.75
2023-02-26T06:51:40.024Z,100549.50
2023-02-26T06:54:06.634Z,100554.81
2023-02-26T06:56:33.365Z,100568.81
2023-02-26T06:59:00.073Z,100564.28
2023-02-26T07:01:27.194Z,100559.06
2023-02-26T07:03:54.144Z,100569.47
2023-02-26T07:06:27.537Z,100566.41
2023-02-26T07:08:55.881Z,100576.72
2023-02-26T07:11:22.932Z,100580.13
2023-02-26T07:13:51.472Z,100581.06
2023-02-26T07:16:18.977Z,100587.41
2023-02-26T07:18:46.285Z,100594.28
2023-02-26T07:21:13.024Z,100594.59
2023-02-26T07:23:39.715Z,100600.88
2023-02-26T07:26:06.395Z,100592.25
2023-02-26T07:28:33.380Z,100600.34
2023-02-26T07:31:00.442Z,100591.03
2023-02-26T07:33:28.398Z,100599.97
2023-02-26T07:35:55.172Z,100598.97
2023-02-26T07:38:21.980Z,100595.63
2023-02-26T07:40:48.860Z,100603.28
2023-02-26T07:43:15.515Z,100608.38
2023-02-26T07:45:42.320Z,100615.38
2023-02-26T07:48:09.275Z,100614.13
2023-02-26T07:50:35.927Z,100616.75
2023-02-26T07:53:02.826Z,100619.50
2023-02-26T07:55:29.984Z,100630.63
2023-02-26T07:57:56.798Z,100621.69
2023-02-26T08:00:23.624Z,100625.88
2023-02-26T08:02:50.311Z,100629.50
2023-02-26T08:05:17.522Z,100636.03
2023-02-26T08:07:44.309Z,100640.00
2023-02-26T08:10:11.784Z,100640.38
2023-02-26T08:12:39.058Z,100635.66
2023-02-26T08:15:06.715Z,100633.38
2023-02-26T08:17:33.993Z,100630.78
2023-02-26T08:20:00.900Z,100632.38
2023-02-26T08:22:28.001Z,100642.81
2023-02-26T08:24:55.720Z,100643.66
2023-02-26T08:27:22.781Z,100642.28
2023-02-26T08:29:50.307Z,100647.72
2023-02-26T08:32:19.727Z,100652.41
2023-02-26T08:34:47.121Z,100653.09
2023-02-26T08:37:14.696Z,100658.78
2023-02-26T08:39:41.403Z,100648.63
2023-02-26T08:42:09.632Z,100658.25
2023-02-26T08:44:36.777Z,100661.03
2023-02-26T08:47:03.889Z,100664.84
2023-02-26T08:49:30.854Z,100661.59
2023-02-26T08:51:57.562Z,100677.28
2023-02-26T08:54:24.998Z,100680.91
2023-02-26T08:56:53.454Z,100673.34
2023-02-26T08:59:20.829Z,100680.63
2023-02-26T09:01:47.597Z,100684.25
2023-02-26T09:04:14.564Z,100681.84
2023-02-26T09:06:41.232Z,100699.47
2023-02-26T09:09:08.291Z,100693.34
2023-02-26T09:11:36.673Z,100700.16
2023-02-26T09:14:04.465Z,100700.66
2023-02-26T09:16:31.977Z,100698.44
2023-02-26T09:18:58.895Z,100708.75
2023-02-26T09:21:25.591Z,100710.16
2023-02-26T09:23:52.321Z,100707.19
2023-02-26T09:26:18.958Z,100704.78
2023-02-26T09:28:45.676Z,100712.75
2023-02-26T09:31:12.880Z,100701.94
2023-02-26T09:33:39.676Z,100717.72
2023-02-26T09:36:06.824Z,100709.84
2023-02-26T09:38:35.861Z,100710.91
2023-02-26T09:41:07.454Z,100713.81
2023-02-26T09:43:58.764Z,100708.78
2023-02-26T09:46:38.006Z,100717.19
2023-02-26T09:49:19.222Z,100719.47
2023-02-26T09:51:50.288Z,100724.00
2023-02-26T09:54:24.190Z,100720.75
2023-02-26T09:56:53.765Z,100725.91
2023-02-26T09:59:20.928Z,100714.03
2023-02-26T10:02:13.925Z,100710.06
2023-02-26T10:05:01.075Z,100717.75
2023-02-26T10:07:45.169Z,100715.25
2023-02-26T10:10:52.056Z,100719.63
2023-02-26T10:13:25.038Z,100722.44
2023-02-26T10:15:53.697Z,100724.44
2023-02-26T10:18:34.544Z,100729.34
2023-02-26T10:21:09.363Z,100728.25
2023-02-26T10:23:45.030Z,100730.13
2023-02-26T10:26:19.310Z,100742.16
2023-02-26T10:28:55.191Z,100739.28
2023-02-26T10:31:28.373Z,100734.06
2023-02-26T10:34:10.848Z,100740.69
2023-02-26T10:36:51.480Z,100749.91
2023-02-26T10:39:29.181Z,100734.97
2023-02-26T10:42:01.838Z,100745.13
2023-02-26T10:44:40.091Z,100743.88
2023-02-26T10:47:39.719Z,100763.53
2023-02-26T10:50:11.918Z,100759.78
2023-02-26T10:52:39.309Z,100765.38
2023-02-26T10:55:10.888Z,100747.88
2023-02-26T10:57:46.712Z,100752.44
2023-02-26T11:00:20.950Z,100751.59
2023-02-26T11:02:52.341Z,100749.31
2023-02-26T11:05:23.666Z,100759.50
2023-02-26T11:07:54.947Z,100757.03
2023-02-26T11:10:30.343Z,100760.66
2023-02-26T11:12:58.714Z,100761.84
2023-02-26T11:15:27.475Z,100760.47
2023-02-26T11:17:56.946Z,100763.81
2023-02-26T11:20:42.777Z,100764.28
2023-02-26T11:23:16.795Z,100772.38
2023-02-26T11:25:44.887Z,100760.94
2023-02-26T11:28:24.808Z,100772.94
2023-02-26T11:30:54.257Z,100765.88
2023-02-26T11:33:36.701Z,100770.59
2023-02-26T11:36:09.416Z,100765.53
2023-02-26T11:38:36.738Z,100757.56
2023-02-26T11:41:05.163Z,100773.34
2023-02-26T11:43:45.042Z,100779.75
2023-02-26T11:46:13.897Z,100780.44
2023-02-26T11:48:44.408Z,100772.00
2023-02-26T11:51:16.898Z,100776.63
2023-02-26T11:53:55.552Z,100775.28
2023-02-26T11:56:39.112Z,100775.13
2023-02-26T11:59:08.606Z,100771.69
2023-02-26T12:01:36.626Z,100777.56
2023-02-26T12:04:04.033Z,100782.97
2023-02-26T12:06:31.227Z,100778.00
2023-02-26T12:08:58.302Z,100777.75
2023-02-26T12:11:44.216Z,100770.81
2023-02-26T12:14:30.486Z,100781.44
2023-02-26T12:17:10.843Z,100778.84
2023-02-26T12:19:59.329Z,100779.91
2023-02-26T12:22:47.108Z,100777.84
2023-02-26T12:25:22.886Z,100782.75
2023-02-26T12:28:00.228Z,100774.38
2023-02-26T12:31:15.634Z,100775.31
2023-02-26T12:34:00.983Z,100780.69
2023-02-26T12:36:31.670Z,100779.16
2023-02-26T12:39:23.700Z,100775.13
2023-02-26T12:42:00.307Z,100774.34
2023-02-26T12:44:52.303Z,100776.47
2023-02-26T12:47:32.054Z,100774.03
2023-02-26T12:50:23.621Z,100782.00
2023-02-26T12:53:03.609Z,100772.03
2023-02-26T12:55:50.138Z,100777.88
2023-02-26T12:58:50.625Z,100767.53
2023-02-26T13:02:01.108Z,100762.19
2023-02-26T13:05:01.959Z,100763.91
2023-02-26T13:07:49.434Z,100767.59
2023-02-26T13:10:19.152Z,100765.00
2023-02-26T13:13:14.227Z,100761.09
2023-02-26T13:15:56.823Z,100765.97
2023-02-26T13:18:34.769Z,100764.31
2023-02-26T13:21:24.948Z,100769.50
2023-02-26T13:24:00.557Z,100767.53
2023-02-26T13:26:29.105Z,100776.94
2023-02-26T13:29:14.173Z,100771.59
2023-02-26T13:31:45.855Z,100771.88
2023-02-26T13:34:17.801Z,100780.78
2023-02-26T13:36:45.601Z,100782.78
2023-02-26T13:39:45.379Z,100782.28
2023-02-26T13:42:38.200Z,100783.00
2023-02-26T13:45:24.022Z,100785.06
2023-02-26T13:48:09.532Z,100784.94
2023-02-26T13:51:02.979Z,100789.22
2023-02-26T13:53:35.397Z,100793.94
2023-02-26T13:56:22.680Z,100793.66
2023-02-26T13:59:00.350Z,100796.34
2023-02-26T14:01:35.251Z,100795.09
2023-02-26T14:04:22.528Z,100796.25
2023-02-26T14:06:53.662Z,100804.81
2023-02-26T14:09:23.515Z,100808.72
2023-02-26T14:12:02.334Z,100812.09
2023-02-26T14:14:37.546Z,100814.84
2023-02-26T14:17:07.848Z,100811.38
2023-02-26T14:19:52.206Z,100814.06
2023-02-26T14:22:23.551Z,100820.84
2023-02-26T14:24:56.639Z,100817.47
2023-02-26T14:27:33.512Z,100829.97
2023-02-26T14:30:18.166Z,100827.91
2023-02-26T14:32:58.543Z,100829.00
2023-02-26T14:35:29.974Z,100833.78
2023-02-26T14:38:05.256Z,100831.06
2023-02-26T14:40:42.840Z,100833.34
2023-02-26T14:43:21.240Z,100840.06
2023-02-26T14:45:50.026Z,100838.47
2023-02-26T14:48:18.809Z,100841.50
2023-02-26T14:51:22.922Z,100841.75
2023-02-26T14:54:23.502Z,100844.31
2023-02-26T14:57:11.700Z,100835.81
2023-02-26T15:00:18.673Z,100841.78
2023-02-26T15:02:58.298Z,100837.66
2023-02-26T15:05:40.680Z,100841.59
2023-02-26T15:08:20.153Z,100853.75
2023-02-26T15:11:19.319Z,100843.53
2023-02-26T15:14:17.559Z,100857.66
2023-02-26T15:16:53.498Z,100852.53
2023-02-26T15:19:53.862Z,100871.44
2023-02-26T15:22:38.821Z,100853.09
2023-02-26T15:25:15.562Z,100852.72
2023-02-26T15:27:42.429Z,100864.47
2023-02-26T15:30:16.135Z,100865.38
2023-02-26T15:32:43.045Z,100869.47
2023-02-26T15:35:18.354Z,100869.47
2023-02-26T15:38:01.151Z,100869.84
2023-02-26T15:40:32.674Z,100874.63
2023-02-26T15:43:00.968Z,100874.22
2023-02-26T15:45:36.308Z,100871.50
2023-02-26T15:48:13.008Z,100886.28
2023-02-26T15:50:43.622Z,100876.94
2023-02-26T15:53:21.885Z,100875.47
2023-02-26T15:55:59.469Z,100888.97
2023-02-26T15:58:50.129Z,100882.97
2023-02-26T16:01:20.024Z,100886.91
2023-02-26T16:03:47.523Z,100883.94
2023-02-26T16:06:20.482Z,100889.69
2023-02-26T16:08:47.429Z,100893.25
2023-02-26T16:11:15.642Z,100884.88
2023-02-26T16:13:44.258Z,100887.34
2023-02-26T16:16:18.224Z,100888.91
2023-02-26T16:18:45.891Z,100886.69
2023-02-26T16:21:23.648Z,100900.13
2023-02-26T16:23:54.218Z,100898.88
2023-02-26T16:26:24.583Z,100893.72
2023-02-26T16:28:57.810Z,100908.38
2023-02-26T16:31:27.389Z,100902.97
2023-02-26T16:34:01.194Z,100908.94
2023-02-26T16:36:32.954Z,100907.16
2023-02-26T16:39:02.449Z,100916.00
2023-02-26T16:41:33.294Z,100922.66
2023-02-26T16:44:03.702Z,100919.75
2023-02-26T16:46:42.590Z,100925.72
2023-02-26T16:49:26.808Z,100929.63
2023-02-26T16:51:56.090Z,100932.78
2023-02-26T16:54:27.692Z,100932.97
2023-02-26T16:57:02.762Z,100939.88
2023-02-26T16:59:35.938Z,100948.25
2023-02-26T17:02:15.057Z,100943.56
2023-02-26T17:04:42.317Z,100946.41
2023-02-26T17:07:21.219Z,100954.09
2023-02-26T17:09:51.786Z,100956.22
2023-02-26T17:12:40.123Z,100962.81
2023-02-26T17:15:18.085Z,100962.66
2023-02-26T17:17:44.948Z,100963.03
2023-02-26T17:20:12.352Z,100976.22
2023-02-26T17:22:42.633Z,100975.41
2023-02-26T17:25:14.875Z,100969.94
2023-02-26T17:27:41.722Z,100982.31
2023-02-26T17:30:13.732Z,100989.00
2023-02-26T17:32:40.726Z,100987.44
2023-02-26T17:35:08.542Z,100989.09
2023-02-26T17:37:36.064Z,100993.16
2023-02-26T17:40:04.787Z,101006.53
2023-02-26T17:42:31.573Z,101003.03
2023-02-26T17:44:58.169Z,101012.03
2023-02-26T17:47:26.582Z,101011.22
2023-02-26T17:49:54.068Z,101024.25
2023-02-26T17:52:20.971Z,101013.69
2023-02-26T17:54:48.023Z,101013.78
2023-02-26T17:57:20.630Z,101025.97
2023-02-26T17:59:49.393Z,101019.38
2023-02-26T18:02:23.487Z,101031.78
2023-02-26T18:04:51.988Z,101030.00
2023-02-26T18:07:20.654Z,101029.94
2023-02-26T18:09:48.258Z,101040.19
2023-02-26T18:12:17.530Z,101046.44
2023-02-26T18:14:44.990Z,101041.66
2023-02-26T18:17:18.122Z,101044.25
2023-02-26T18:19:46.271Z,101051.66
2023-02-26T18:22:14.420Z,101049.19
2023-02-26T18:24:42.120Z,101055.53
2023-02-26T18:27:19.406Z,101055.22
2023-02-26T18:29:47.343Z,101056.63
2023-02-26T18:32:24.086Z,101074.22
2023-02-26T18:34:53.260Z,101066.44
2023-02-26T18:37:24.531Z,101065.59
2023-02-26T18:39:53.192Z,101066.97
2023-02-26T18:42:26.852Z,101069.63
2023-02-26T18:44:55.729Z,101068.97
2023-02-26T18:47:25.664Z,101074.44
2023-02-26T18:49:53.660Z,101073.53
2023-02-26T18:52:22.307Z,101076.28
2023-02-26T18:54:50.148Z,101087.38
2023-02-26T18:57:17.306Z,101079.91
2023-02-26T18:59:44.307Z,101092.94
2023-02-26T19:02:16.823Z,101095.13
2023-02-26T19:04:47.204Z,101093.34
2023-02-26T19:07:16.103Z,101105.44
2023-02-26T19:09:45.513Z,101105.75
2023-02-26T19:12:20.452Z,101104.16
2023-02-26T19:14:59.526Z,101104.44
2023-02-26T19:17:27.354Z,101105.97
2023-02-26T19:20:02.879Z,101108.81
2023-02-26T19:22:37.213Z,101114.50
2023-02-26T19:25:05.730Z,101104.88
2023-02-26T19:27:32.777Z,101103.53
2023-02-26T19:29:59.633Z,101113.81
2023-02-26T19:32:27.074Z,101113.66
2023-02-26T19:34:54.900Z,101110.25
2023-02-26T19:37:23.360Z,101117.38
2023-02-26T19:39:51.166Z,101115.56
2023-02-26T19:42:19.643Z,101121.69
2023-02-26T19:44:48.308Z,101121.38
2023-02-26T19:47:17.726Z,101112.44
2023-02-26T19:49:44.690Z,101129.28
2023-02-26T19:52:12.913Z,101128.81
2023-02-26T19:54:42.112Z,101125.56
2023-02-26T19:57:09.094Z,101127.94
2023-02-26T19:59:36.511Z,101131.41
2023-02-26T20:02:05.992Z,101142.03
2023-02-26T20:04:34.339Z,101140.09
2023-02-26T20:07:05.766Z,101140.94
2023-02-26T20:09:33.922Z,101147.72
2023-02-26T20:12:01.228Z,101134.09
2023-02-26T20:14:29.143Z,101144.94
2023-02-26T20:16:56.784Z,101142.97
2023-02-26T20:19:24.306Z,101148.28
2023-02-26T20:21:53.884Z,101148.28
2023-02-26T20:24:22.560Z,101142.50
2023-02-26T20:26:49.849Z,101152.25
2023-02-26T20:29:18.654Z,101152.28
2023-02-26T20:31:50.796Z,101150.31
2023-02-26T20:34:19.508Z,101157.78
2023-02-26T20:36:50.835Z,101145.84
2023-02-26T20:39:21.232Z,101153.81
2023-02-26T20:41:50.398Z,101155.84
2023-02-26T20:44:18.062Z,101169.63
2023-02-26T20:46:45.341Z,101160.38
2023-02-26T20:49:13.862Z,101164.69
2023-02-26T20:51:42.869Z,101167.38
2023-02-26T20:54:16.312Z,101173.19
2023-02-26T20:56:44.312Z,101174.19
2023-02-26T20:59:11.474Z,101168.06
2023-02-26T21:01:39.606Z,101173.53
2023-02-26T21:04:09.046Z,101168.41
2023-02-26T21:06:37.673Z,101169.41
2023-02-26T21:09:05.898Z,101173.69
2023-02-26T21:11:36.872Z,101183.00
2023-02-26T21:14:07.790Z,101177.53
2023-02-26T21:16:41.648Z,101181.16
2023-02-26T21:19:10.532Z,101171.53
2023-02-26T21:21:44.741Z,101175.03
2023-02-26T21:24:11.531Z,101180.16
2023-02-26T21:26:38.427Z,101180.16
2023-02-26T21:29:05.633Z,101179.19
2023-02-26T21:31:32.834Z,101181.00
2023-02-26T21:34:08.297Z,101192.41
2023-02-26T21:36:45.319Z,101199.06
2023-02-26T21:39:12.543Z,101188.13
2023-02-26T21:41:39.265Z,101190.59
2023-02-26T21:44:06.130Z,101192.44
2023-02-26T21:46:34.099Z,101195.91
2023-02-26T21:49:01.654Z,101198.72
2023-02-26T21:51:28.762Z,101202.69
2023-02-26T21:53:56.021Z,101200.56
2023-02-26T21:56:23.428Z,101192.91
2023-02-26T21:58:50.412Z,101194.91
2023-02-26T22:01:18.413Z,101191.44
2023-02-26T22:03:45.204Z,101193.91
2023-02-26T22:06:12.512Z,101184.31
2023-02-26T22:08:39.732Z,101184.16
2023-02-26T22:11:06.575Z,101194.09
2023-02-26T22:13:33.777Z,101187.59
2023-02-26T22:16:00.882Z,101187.78
2023-02-26T22:18:28.375Z,101185.66
2023-02-26T22:20:56.849Z,101194.25
2023-02-26T22:23:23.544Z,101190.94
2023-02-26T22:25:50.616Z,101184.31
2023-02-26T22:28:18.268Z,101181.66
2023-02-26T22:30:45.159Z,101189.63
2023-02-26T22:33:11.933Z,101196.72
2023-02-26T22:35:39.084Z,101194.06
2023-02-26T22:38:05.815Z,101202.00
2023-02-26T22:40:33.196Z,101200.72
2023-02-26T22:43:00.544Z,101201.19
2023-02-26T22:45:27.720Z,101204.16
2023-02-26T22:47:54.442Z,101207.66
2023-02-26T22:50:22.390Z,101201.50
2023-02-26T22:52:49.337Z,101209.13
2023-02-26T22:55:16.445Z,101202.50
2023-02-26T22:57:43.618Z,101208.31
2023-02-26T23:00:15.279Z,101210.78
2023-02-26T23:02:42.547Z,101206.97
2023-02-26T23:05:09.490Z,101211.78
2023-02-26T23:07:38.997Z,101207.81
2023-02-26T23:10:08.029Z,101220.72
2023-02-26T23:12:35.604Z,101214.09
2023-02-26T23:15:02.993Z,101216.75
2023-02-26T23:17:31.627Z,101213.47
2023-02-26T23:19:58.981Z,101218.28
2023-02-26T23:22:25.798Z,101216.28
2023-02-26T23:24:52.798Z,101208.50
2023-02-26T23:27:19.544Z,101207.19
2023-02-26T23:29:46.206Z,101215.31
2023-02-26T23:32:14.438Z,101210.34
2023-02-26T23:34:41.730Z,101222.94
2023-02-26T23:37:09.131Z,101213.78
2023-02-26T23:39:36.176Z,101212.81
2023-02-26T23:42:03.028Z,101208.31
2023-02-26T23:44:29.627Z,101208.84
2023-02-26T23:46:56.361Z,101218.09
2023-02-26T23:49:23.070Z,101207.69
2023-02-26T23:51:49.937Z,101218.63
2023-02-26T23:54:16.655Z,101220.28
2023-02-26T23:56:45.681Z,101222.44
2023-02-26T23:59:13.884Z,101224.41
